Castlebar, Ireland
Current Conditions -  °F | °C
As of 7:30 PM on Friday 19 Dec 2014 (Local Time) from EIKN Reporting Station
Scattered Clouds Scattered Clouds  
Wind Chill: 33°   Ceiling: Unl
Heat Index: 41°   Visibility: 6mi
Dew Point: 37°   Wind: 14mph
Humidity: 87%   Direction: 260°W
Pressure: 30.09"   Gusts: NA
Location:  53.86°N, 9.3°W
Report Text: EIKN 191930Z 26012KT 9999 FEW020CB SCT045 05/03 Q1019 NOSIG
Loading
Personal Weather Stations






























Interactive Weather Map New forecast layout! Learn more

10-Day Weather Forecast

Advertisements
Track Severe Weather on mobile